createdAt,value
2022-08-28T00:00:20.328Z,89.12
2022-08-28T00:02:47.390Z,89.11
2022-08-28T00:05:16.974Z,89.05
2022-08-28T00:07:47.646Z,89.12
2022-08-28T00:10:16.934Z,89.15
2022-08-28T00:12:44.633Z,89.08
2022-08-28T00:15:15.999Z,89.07
2022-08-28T00:17:43.232Z,89.17
2022-08-28T00:20:11.489Z,89.32
2022-08-28T00:22:38.967Z,89.27
2022-08-28T00:25:07.180Z,89.25
2022-08-28T00:27:52.779Z,89.50
2022-08-28T00:30:34.515Z,89.58
2022-08-28T00:33:11.932Z,89.79
2022-08-28T00:35:41.052Z,89.47
2022-08-28T00:38:09.459Z,90.11
2022-08-28T00:40:37.250Z,90.09
2022-08-28T00:43:06.824Z,89.97
2022-08-28T00:45:39.305Z,89.70
2022-08-28T00:48:06.600Z,89.49
2022-08-28T00:51:00.098Z,89.37
2022-08-28T00:53:32.677Z,89.56
2022-08-28T00:56:00.662Z,89.62
2022-08-28T00:58:27.427Z,89.64
2022-08-28T01:00:54.113Z,89.46
2022-08-28T01:03:20.831Z,89.59
2022-08-28T01:05:52.368Z,89.51
2022-08-28T01:08:19.280Z,89.47
2022-08-28T01:10:49.737Z,89.53
2022-08-28T01:13:18.209Z,89.45
2022-08-28T01:15:45.559Z,89.73
2022-08-28T01:18:15.949Z,89.68
2022-08-28T01:20:47.953Z,89.66
2022-08-28T01:23:38.841Z,89.64
2022-08-28T01:26:07.596Z,90.13
2022-08-28T01:28:38.814Z,90.14
2022-08-28T01:31:05.603Z,89.85
2022-08-28T01:33:32.352Z,89.71
2022-08-28T01:35:59.412Z,89.79
2022-08-28T01:38:26.781Z,89.67
2022-08-28T01:40:53.946Z,89.89
2022-08-28T01:43:23.658Z,90.08
2022-08-28T01:45:57.300Z,89.72
2022-08-28T01:48:26.774Z,90.00
2022-08-28T01:50:53.595Z,89.95
2022-08-28T01:53:24.919Z,90.01
2022-08-28T01:55:53.307Z,90.22
2022-08-28T01:58:20.960Z,90.07
2022-08-28T02:00:48.123Z,90.22
2022-08-28T02:03:15.295Z,90.18
2022-08-28T02:05:43.166Z,90.23
2022-08-28T02:08:10.103Z,90.04
2022-08-28T02:10:38.663Z,90.08
2022-08-28T02:13:06.574Z,89.80
2022-08-28T02:15:35.153Z,89.59
2022-08-28T02:18:02.182Z,89.65
2022-08-28T02:20:29.851Z,89.87
2022-08-28T02:22:58.033Z,90.06
2022-08-28T02:25:25.170Z,89.97
2022-08-28T02:27:51.846Z,89.95
2022-08-28T02:30:18.893Z,90.16
2022-08-28T02:32:46.338Z,89.99
2022-08-28T02:35:16.042Z,90.04
2022-08-28T02:37:44.404Z,89.94
2022-08-28T02:40:14.414Z,90.14
2022-08-28T02:42:42.199Z,89.99
2022-08-28T02:45:11.908Z,90.40
2022-08-28T02:47:40.124Z,90.36
2022-08-28T02:50:08.194Z,90.23
2022-08-28T02:52:35.775Z,90.10
2022-08-28T02:55:02.517Z,90.00
2022-08-28T02:57:30.045Z,90.07
2022-08-28T02:59:56.752Z,90.34
2022-08-28T03:02:24.022Z,90.35
2022-08-28T03:04:52.693Z,90.36
2022-08-28T03:07:19.940Z,90.19
2022-08-28T03:09:46.669Z,90.27
2022-08-28T03:12:13.484Z,90.11
2022-08-28T03:14:40.267Z,90.18
2022-08-28T03:17:08.088Z,90.22
2022-08-28T03:19:35.160Z,90.10
2022-08-28T03:22:01.836Z,90.19
2022-08-28T03:24:28.571Z,90.15
2022-08-28T03:26:55.271Z,90.02
2022-08-28T03:29:21.991Z,90.17
2022-08-28T03:31:48.654Z,90.03
2022-08-28T03:34:15.324Z,90.28
2022-08-28T03:36:42.021Z,90.11
2022-08-28T03:39:08.702Z,90.18
2022-08-28T03:41:35.452Z,90.31
2022-08-28T03:44:02.773Z,90.29
2022-08-28T03:46:34.526Z,90.29
2022-08-28T03:49:03.770Z,90.34
2022-08-28T03:51:32.827Z,90.20
2022-08-28T03:54:00.943Z,90.43
2022-08-28T03:56:29.958Z,90.53
2022-08-28T03:58:58.755Z,90.21
2022-08-28T04:01:26.001Z,89.91
2022-08-28T04:03:52.808Z,90.05
2022-08-28T04:06:20.330Z,89.66
2022-08-28T04:08:47.789Z,89.79
2022-08-28T04:11:14.907Z,89.68
2022-08-28T04:13:42.169Z,89.61
2022-08-28T04:16:11.599Z,89.75
2022-08-28T04:18:40.180Z,89.61
2022-08-28T04:21:12.572Z,89.70
2022-08-28T04:23:39.942Z,89.73
2022-08-28T04:26:10.983Z,89.75
2022-08-28T04:28:37.729Z,89.65
2022-08-28T04:31:04.891Z,89.61
2022-08-28T04:33:31.532Z,89.73
2022-08-28T04:36:02.708Z,89.73
2022-08-28T04:38:29.801Z,89.58
2022-08-28T04:40:56.451Z,89.65
2022-08-28T04:43:25.683Z,89.76
2022-08-28T04:45:52.515Z,89.61
2022-08-28T04:48:19.524Z,89.60
2022-08-28T04:50:48.636Z,89.52
2022-08-28T04:53:17.384Z,89.63
2022-08-28T04:55:54.052Z,89.52
2022-08-28T04:58:24.281Z,89.41
2022-08-28T05:00:52.810Z,89.32
2022-08-28T05:03:19.709Z,89.30
2022-08-28T05:05:52.378Z,89.26
2022-08-28T05:08:21.104Z,89.34
2022-08-28T05:10:48.135Z,89.15
2022-08-28T05:13:15.721Z,89.09
2022-08-28T05:15:44.703Z,88.97
2022-08-28T05:18:15.627Z,89.04
2022-08-28T05:20:44.722Z,88.85
2022-08-28T05:23:11.984Z,88.75
2022-08-28T05:25:41.021Z,88.81
2022-08-28T05:28:09.892Z,88.41
2022-08-28T05:30:40.288Z,88.38
2022-08-28T05:33:08.166Z,88.15
2022-08-28T05:35:37.580Z,87.82
2022-08-28T05:38:05.072Z,87.90
2022-08-28T05:40:32.144Z,87.80
2022-08-28T05:42:58.899Z,87.54
2022-08-28T05:45:25.840Z,87.59
2022-08-28T05:47:52.839Z,87.33
2022-08-28T05:50:19.933Z,87.28
2022-08-28T05:52:47.506Z,86.74
2022-08-28T05:55:14.685Z,86.60
2022-08-28T05:57:41.869Z,86.38
2022-08-28T06:00:13.762Z,86.74
2022-08-28T06:02:42.101Z,86.55
2022-08-28T06:05:12.988Z,86.23
2022-08-28T06:07:41.148Z,85.96
2022-08-28T06:10:10.563Z,85.25
2022-08-28T06:12:37.757Z,84.91
2022-08-28T06:15:06.105Z,84.55
2022-08-28T06:17:32.860Z,83.85
2022-08-28T06:19:59.584Z,83.46
2022-08-28T06:22:26.510Z,83.78
2022-08-28T06:24:54.218Z,83.34
2022-08-28T06:27:21.071Z,82.45
2022-08-28T06:29:47.842Z,82.09
2022-08-28T06:32:14.593Z,81.75
2022-08-28T06:34:41.801Z,81.18
2022-08-28T06:37:09.911Z,80.21
2022-08-28T06:39:36.689Z,80.59
2022-08-28T06:42:05.563Z,80.18
2022-08-28T06:44:32.539Z,79.66
2022-08-28T06:47:00.454Z,79.86
2022-08-28T06:49:30.018Z,79.76
2022-08-28T06:52:02.464Z,80.34
2022-08-28T06:54:31.142Z,80.37
2022-08-28T06:56:57.890Z,79.53
2022-08-28T06:59:24.541Z,80.32
2022-08-28T07:01:53.643Z,78.63
2022-08-28T07:04:20.472Z,79.96
2022-08-28T07:06:54.259Z,79.99
2022-08-28T07:09:22.124Z,78.69
2022-08-28T07:11:48.811Z,76.99
2022-08-28T07:14:16.214Z,78.24
2022-08-28T07:16:44.654Z,77.44
2022-08-28T07:19:12.178Z,76.64
2022-08-28T07:21:43.880Z,77.27
2022-08-28T07:24:13.515Z,73.96
2022-08-28T07:26:41.588Z,73.93
2022-08-28T07:29:11.042Z,74.70
2022-08-28T07:31:41.443Z,74.18
2022-08-28T07:34:10.123Z,72.36
2022-08-28T07:36:37.573Z,73.34
2022-08-28T07:39:05.494Z,76.08
2022-08-28T07:41:33.760Z,74.60
2022-08-28T07:44:19.101Z,73.48
2022-08-28T07:46:45.792Z,74.14
2022-08-28T07:49:19.719Z,73.02
2022-08-28T07:51:46.712Z,70.88
2022-08-28T07:54:16.884Z,74.01
2022-08-28T07:56:45.979Z,71.52
2022-08-28T07:59:13.965Z,71.14
2022-08-28T08:01:46.598Z,72.99
2022-08-28T08:04:17.778Z,70.91
2022-08-28T08:06:45.703Z,72.32
2022-08-28T08:09:15.702Z,72.80
2022-08-28T08:11:43.007Z,71.86
2022-08-28T08:14:10.973Z,71.34
2022-08-28T08:16:40.789Z,70.95
2022-08-28T08:19:14.228Z,71.11
2022-08-28T08:21:46.140Z,70.87
2022-08-28T08:24:19.611Z,69.90
2022-08-28T08:26:59.402Z,69.63
2022-08-28T08:29:29.785Z,68.37
2022-08-28T08:32:02.284Z,68.22
2022-08-28T08:34:28.930Z,69.96
2022-08-28T08:36:55.686Z,68.75
2022-08-28T08:39:22.421Z,70.75
2022-08-28T08:41:52.195Z,68.03
2022-08-28T08:44:37.353Z,66.41
2022-08-28T08:47:15.877Z,66.21
2022-08-28T08:49:57.893Z,68.65
2022-08-28T08:52:33.488Z,68.95
2022-08-28T08:55:06.393Z,68.13
2022-08-28T08:57:35.374Z,65.95
2022-08-28T09:00:05.416Z,67.80
2022-08-28T09:02:34.624Z,65.81
2022-08-28T09:05:12.447Z,63.76
2022-08-28T09:07:52.659Z,64.56
2022-08-28T09:10:19.935Z,66.21
2022-08-28T09:13:01.473Z,65.41
2022-08-28T09:15:39.591Z,65.49
2022-08-28T09:18:22.502Z,66.62
2022-08-28T09:20:50.905Z,66.07
2022-08-28T09:23:17.772Z,64.06
2022-08-28T09:25:44.551Z,63.81
2022-08-28T09:28:18.150Z,61.00
2022-08-28T09:30:53.310Z,64.04
2022-08-28T09:33:40.091Z,65.42
2022-08-28T09:36:27.117Z,59.49
2022-08-28T09:39:21.266Z,60.63
2022-08-28T09:42:11.370Z,63.39
2022-08-28T09:45:16.364Z,65.53
2022-08-28T09:47:47.003Z,64.01
2022-08-28T09:50:29.149Z,67.53
2022-08-28T09:53:14.907Z,68.44
2022-08-28T09:56:11.644Z,65.76
2022-08-28T09:59:01.353Z,63.92
2022-08-28T10:01:46.460Z,65.09
2022-08-28T10:04:16.836Z,64.46
2022-08-28T10:06:52.101Z,63.39
2022-08-28T10:09:29.430Z,63.83
2022-08-28T10:12:10.779Z,63.81
2022-08-28T10:15:02.340Z,63.63
2022-08-28T10:17:29.259Z,67.88
2022-08-28T10:20:20.694Z,61.17
2022-08-28T10:22:57.168Z,59.26
2022-08-28T10:25:33.642Z,63.96
2022-08-28T10:28:32.582Z,62.07
2022-08-28T10:31:07.294Z,64.45
2022-08-28T10:33:37.162Z,62.54
2022-08-28T10:36:05.681Z,63.47
2022-08-28T10:38:38.128Z,64.92
2022-08-28T10:41:17.433Z,65.16
2022-08-28T10:43:51.223Z,65.33
2022-08-28T10:46:30.607Z,67.41
2022-08-28T10:49:04.414Z,68.21
2022-08-28T10:51:46.131Z,66.70
2022-08-28T10:54:23.635Z,66.67
2022-08-28T10:56:56.309Z,66.62
2022-08-28T10:59:24.103Z,66.75
2022-08-28T11:01:51.853Z,65.10
2022-08-28T11:04:25.671Z,68.51
2022-08-28T11:07:05.840Z,66.49
2022-08-28T11:09:46.189Z,65.42
2022-08-28T11:12:15.828Z,66.32
2022-08-28T11:14:48.828Z,65.05
2022-08-28T11:17:21.791Z,59.55
2022-08-28T11:20:17.683Z,57.40
2022-08-28T11:23:11.480Z,52.68
2022-08-28T11:25:41.184Z,53.81
2022-08-28T11:28:11.571Z,58.71
2022-08-28T11:30:38.588Z,58.84
2022-08-28T11:33:26.613Z,62.28
2022-08-28T11:35:53.585Z,61.98
2022-08-28T11:38:43.329Z,61.60
2022-08-28T11:41:24.361Z,63.15
2022-08-28T11:44:09.472Z,63.14
2022-08-28T11:46:45.651Z,61.89
2022-08-28T11:49:26.196Z,61.86
2022-08-28T11:52:03.923Z,58.28
2022-08-28T11:54:46.324Z,59.11
2022-08-28T11:57:12.911Z,56.68
2022-08-28T12:00:03.998Z,60.49
2022-08-28T12:02:40.450Z,59.91
2022-08-28T12:05:30.569Z,59.66
2022-08-28T12:07:58.927Z,61.56
2022-08-28T12:10:29.674Z,61.83
2022-08-28T12:13:00.514Z,61.40
2022-08-28T12:15:27.359Z,60.89
2022-08-28T12:18:06.893Z,63.60
2022-08-28T12:20:52.226Z,63.91
2022-08-28T12:23:43.366Z,62.19
2022-08-28T12:26:19.277Z,64.05
2022-08-28T12:28:49.480Z,61.05
2022-08-28T12:31:52.720Z,59.33
2022-08-28T12:34:37.185Z,62.92
2022-08-28T12:37:06.047Z,63.05
2022-08-28T12:39:33.743Z,61.69
2022-08-28T12:42:02.736Z,61.39
2022-08-28T12:44:31.386Z,58.57
2022-08-28T12:46:58.404Z,59.80
2022-08-28T12:49:34.247Z,60.36
2022-08-28T12:52:18.070Z,56.63
2022-08-28T12:54:45.866Z,55.72
2022-08-28T12:57:15.887Z,56.74
2022-08-28T12:59:45.390Z,56.90
2022-08-28T13:02:12.261Z,55.71
2022-08-28T13:04:58.791Z,58.83
2022-08-28T13:07:35.053Z,57.46
2022-08-28T13:10:06.847Z,60.60
2022-08-28T13:12:54.332Z,61.39
2022-08-28T13:15:44.168Z,62.63
2022-08-28T13:18:11.174Z,59.16
2022-08-28T13:20:39.127Z,56.78
2022-08-28T13:23:05.942Z,56.75
2022-08-28T13:25:35.855Z,56.35
2022-08-28T13:28:13.881Z,56.57
2022-08-28T13:30:45.753Z,58.51
2022-08-28T13:33:24.065Z,58.21
2022-08-28T13:35:51.872Z,55.92
2022-08-28T13:38:20.602Z,54.35
2022-08-28T13:40:59.747Z,56.79
2022-08-28T13:43:29.741Z,57.82
2022-08-28T13:45:56.623Z,54.78
2022-08-28T13:48:27.435Z,57.70
2022-08-28T13:51:03.128Z,55.48
2022-08-28T13:53:31.995Z,58.05
2022-08-28T13:56:00.320Z,52.92
2022-08-28T13:58:28.330Z,52.88
2022-08-28T14:00:55.144Z,52.39
2022-08-28T14:03:38.441Z,51.34
2022-08-28T14:06:14.346Z,51.94
2022-08-28T14:08:43.410Z,51.62
2022-08-28T14:11:12.748Z,51.75
2022-08-28T14:13:40.892Z,52.71
2022-08-28T14:16:16.875Z,53.28
2022-08-28T14:18:43.856Z,53.37
2022-08-28T14:21:10.722Z,52.58
2022-08-28T14:23:37.412Z,55.39
2022-08-28T14:26:05.175Z,54.01
2022-08-28T14:28:31.903Z,56.05
2022-08-28T14:30:58.614Z,56.66
2022-08-28T14:33:25.406Z,55.57
2022-08-28T14:35:52.145Z,56.51
2022-08-28T14:38:18.909Z,59.73
2022-08-28T14:40:45.740Z,61.35
2022-08-28T14:43:13.581Z,54.88
2022-08-28T14:45:45.922Z,52.54
2022-08-28T14:48:12.819Z,50.99
2022-08-28T14:50:41.304Z,52.13
2022-08-28T14:53:08.493Z,55.45
2022-08-28T14:55:44.079Z,53.96
2022-08-28T14:58:11.407Z,51.34
2022-08-28T15:00:50.040Z,49.82
2022-08-28T15:03:18.706Z,51.23
2022-08-28T15:05:45.809Z,54.38
2022-08-28T15:08:15.344Z,54.62
2022-08-28T15:10:42.950Z,53.22
2022-08-28T15:13:10.705Z,52.74
2022-08-28T15:15:42.302Z,55.07
2022-08-28T15:18:10.409Z,53.96
2022-08-28T15:20:46.830Z,51.99
2022-08-28T15:23:15.172Z,52.72
2022-08-28T15:25:42.744Z,50.61
2022-08-28T15:28:09.835Z,51.65
2022-08-28T15:30:36.979Z,55.46
2022-08-28T15:33:03.948Z,51.28
2022-08-28T15:35:30.728Z,52.02
2022-08-28T15:37:57.583Z,54.64
2022-08-28T15:40:42.750Z,54.64
2022-08-28T15:43:09.661Z,56.16
2022-08-28T15:45:37.780Z,51.39
2022-08-28T15:48:04.774Z,52.09
2022-08-28T15:50:31.768Z,50.56
2022-08-28T15:52:58.974Z,52.20
2022-08-28T15:55:26.250Z,50.85
2022-08-28T15:57:54.518Z,50.11
2022-08-28T16:00:21.723Z,50.93
2022-08-28T16:02:48.644Z,52.90
2022-08-28T16:05:15.999Z,50.03
2022-08-28T16:07:42.812Z,50.38
2022-08-28T16:10:13.261Z,49.82
2022-08-28T16:12:42.518Z,50.45
2022-08-28T16:15:12.121Z,50.91
2022-08-28T16:17:39.229Z,50.29
2022-08-28T16:20:11.054Z,53.86
2022-08-28T16:22:40.417Z,50.18
2022-08-28T16:25:11.335Z,50.65
2022-08-28T16:27:40.916Z,50.02
2022-08-28T16:30:15.639Z,49.16
2022-08-28T16:32:46.650Z,49.50
2022-08-28T16:35:15.419Z,49.98
2022-08-28T16:37:43.276Z,49.45
2022-08-28T16:40:16.857Z,47.63
2022-08-28T16:42:51.420Z,51.13
2022-08-28T16:45:20.966Z,43.58
2022-08-28T16:47:50.297Z,46.11
2022-08-28T16:50:18.121Z,47.28
2022-08-28T16:52:56.091Z,43.70
2022-08-28T16:55:23.967Z,43.27
2022-08-28T16:57:56.878Z,45.87
2022-08-28T17:00:27.445Z,46.75
2022-08-28T17:02:58.979Z,48.54
2022-08-28T17:05:28.438Z,46.46
2022-08-28T17:07:59.934Z,48.22
2022-08-28T17:10:30.449Z,49.92
2022-08-28T17:12:57.960Z,50.84
2022-08-28T17:15:26.871Z,51.70
2022-08-28T17:17:56.068Z,52.59
2022-08-28T17:20:43.894Z,51.87
2022-08-28T17:23:12.529Z,53.24
2022-08-28T17:25:49.538Z,52.56
2022-08-28T17:28:19.342Z,54.43
2022-08-28T17:30:49.478Z,56.33
2022-08-28T17:33:16.925Z,57.89
2022-08-28T17:35:46.092Z,56.76
2022-08-28T17:38:19.872Z,57.09
2022-08-28T17:40:49.141Z,55.07
2022-08-28T17:43:16.490Z,58.04
2022-08-28T17:45:45.199Z,57.40
2022-08-28T17:48:18.408Z,55.99
2022-08-28T17:50:48.508Z,55.91
2022-08-28T17:53:19.494Z,56.70
2022-08-28T17:55:52.258Z,59.03
2022-08-28T17:58:19.845Z,59.23
2022-08-28T18:00:47.102Z,59.92
2022-08-28T18:03:16.477Z,61.14
2022-08-28T18:05:43.664Z,62.73
2022-08-28T18:08:15.397Z,63.05
2022-08-28T18:10:42.630Z,64.33
2022-08-28T18:13:09.745Z,65.08
2022-08-28T18:15:37.033Z,65.75
2022-08-28T18:18:05.468Z,67.27
2022-08-28T18:20:33.203Z,68.13
2022-08-28T18:22:59.946Z,68.23
2022-08-28T18:25:41.835Z,68.01
2022-08-28T18:28:19.618Z,67.88
2022-08-28T18:30:51.126Z,68.13
2022-08-28T18:33:20.528Z,67.96
2022-08-28T18:35:49.458Z,67.80
2022-08-28T18:38:17.965Z,67.76
2022-08-28T18:40:45.547Z,68.37
2022-08-28T18:43:12.617Z,67.36
2022-08-28T18:45:40.059Z,68.03
2022-08-28T18:48:08.119Z,67.89
2022-08-28T18:50:35.623Z,68.48
2022-08-28T18:53:02.767Z,69.06
2022-08-28T18:55:31.545Z,70.30
2022-08-28T18:58:00.033Z,70.28
2022-08-28T19:00:27.382Z,70.40
2022-08-28T19:02:54.660Z,70.39
2022-08-28T19:05:21.964Z,70.75
2022-08-28T19:07:49.588Z,70.43
2022-08-28T19:10:32.657Z,70.58
2022-08-28T19:13:01.769Z,69.85
2022-08-28T19:15:29.253Z,69.59
2022-08-28T19:17:56.042Z,69.90
2022-08-28T19:20:23.315Z,69.64
2022-08-28T19:22:50.032Z,70.36
2022-08-28T19:25:27.743Z,71.20
2022-08-28T19:27:59.858Z,71.73
2022-08-28T19:30:29.207Z,71.06
2022-08-28T19:32:56.301Z,70.39
2022-08-28T19:35:24.258Z,70.01
2022-08-28T19:37:52.943Z,70.56
2022-08-28T19:40:21.197Z,72.29
2022-08-28T19:42:51.141Z,72.30
2022-08-28T19:45:18.995Z,72.99
2022-08-28T19:47:47.308Z,72.70
2022-08-28T19:50:14.885Z,72.62
2022-08-28T19:52:43.627Z,72.34
2022-08-28T19:55:21.650Z,71.79
2022-08-28T19:57:49.611Z,70.71
2022-08-28T20:00:18.878Z,71.39
2022-08-28T20:02:50.503Z,71.54
2022-08-28T20:05:17.879Z,72.06
2022-08-28T20:07:45.354Z,72.31
2022-08-28T20:10:13.541Z,72.70
2022-08-28T20:12:47.993Z,73.43
2022-08-28T20:15:17.574Z,73.55
2022-08-28T20:17:50.193Z,73.92
2022-08-28T20:20:19.712Z,74.02
2022-08-28T20:22:46.545Z,74.28
2022-08-28T20:25:14.863Z,74.42
2022-08-28T20:27:41.648Z,74.26
2022-08-28T20:30:10.687Z,74.57
2022-08-28T20:32:40.021Z,74.80
2022-08-28T20:35:10.298Z,75.14
2022-08-28T20:37:44.958Z,75.42
2022-08-28T20:40:18.344Z,75.73
2022-08-28T20:42:46.533Z,76.66
2022-08-28T20:45:15.545Z,75.99
2022-08-28T20:47:42.823Z,75.63
2022-08-28T20:50:10.541Z,75.41
2022-08-28T20:52:37.555Z,75.74
2022-08-28T20:55:07.597Z,75.83
2022-08-28T20:57:34.388Z,75.87
2022-08-28T21:00:04.930Z,76.00
2022-08-28T21:02:33.209Z,76.29
2022-08-28T21:05:00.128Z,76.77
2022-08-28T21:07:27.750Z,77.22
2022-08-28T21:10:05.657Z,77.51
2022-08-28T21:12:33.514Z,77.87
2022-08-28T21:15:00.523Z,78.33
2022-08-28T21:17:30.130Z,78.28
2022-08-28T21:20:11.869Z,78.44
2022-08-28T21:22:39.747Z,78.88
2022-08-28T21:25:08.296Z,78.77
2022-08-28T21:27:35.143Z,78.83
2022-08-28T21:30:02.366Z,78.97
2022-08-28T21:32:30.670Z,78.85
2022-08-28T21:34:57.441Z,78.72
2022-08-28T21:37:27.841Z,79.00
2022-08-28T21:39:56.512Z,79.19
2022-08-28T21:42:23.746Z,79.96
2022-08-28T21:44:51.874Z,79.50
2022-08-28T21:47:20.150Z,79.46
2022-08-28T21:49:51.528Z,80.29
2022-08-28T21:52:19.276Z,81.55
2022-08-28T21:54:46.206Z,81.80
2022-08-28T21:57:12.953Z,81.22
2022-08-28T21:59:39.643Z,80.84
2022-08-28T22:02:06.491Z,81.82
2022-08-28T22:04:33.435Z,81.99
2022-08-28T22:07:00.201Z,82.53
2022-08-28T22:09:26.914Z,82.20
2022-08-28T22:11:54.044Z,82.01
2022-08-28T22:14:21.122Z,81.80
2022-08-28T22:16:47.960Z,82.33
2022-08-28T22:19:14.691Z,81.91
2022-08-28T22:21:59.813Z,82.03
2022-08-28T22:24:26.501Z,81.82
2022-08-28T22:26:57.754Z,81.77
2022-08-28T22:29:25.061Z,81.70
2022-08-28T22:31:52.638Z,81.97
2022-08-28T22:34:19.439Z,82.57
2022-08-28T22:36:46.109Z,83.01
2022-08-28T22:39:12.793Z,82.92
2022-08-28T22:41:40.392Z,82.98
2022-08-28T22:44:07.310Z,83.02
2022-08-28T22:46:37.396Z,82.86
2022-08-28T22:49:04.906Z,82.76
2022-08-28T22:51:35.146Z,82.90
2022-08-28T22:54:02.042Z,82.68
2022-08-28T22:56:28.803Z,82.49
2022-08-28T22:58:55.522Z,82.34
2022-08-28T23:01:24.373Z,82.42
2022-08-28T23:03:51.267Z,82.41
2022-08-28T23:06:18.110Z,82.59
2022-08-28T23:08:44.749Z,82.77
2022-08-28T23:11:11.594Z,82.55
2022-08-28T23:13:38.984Z,82.93
2022-08-28T23:16:05.883Z,83.01
2022-08-28T23:18:51.954Z,82.96
2022-08-28T23:21:23.890Z,82.93
2022-08-28T23:23:53.274Z,83.05
2022-08-28T23:26:20.082Z,83.96
2022-08-28T23:28:47.238Z,83.47
2022-08-28T23:31:14.031Z,83.39
2022-08-28T23:33:40.883Z,83.43
2022-08-28T23:36:08.013Z,83.34
2022-08-28T23:38:37.572Z,83.78
2022-08-28T23:41:07.923Z,83.84
2022-08-28T23:43:34.898Z,83.80
2022-08-28T23:46:01.886Z,84.12
2022-08-28T23:48:29.286Z,84.14
2022-08-28T23:50:56.225Z,83.93
2022-08-28T23:53:22.910Z,84.02
2022-08-28T23:55:50.087Z,84.41
2022-08-28T23:58:18.339Z,84.49
